Terminal Aerodrome Forecast
Issued by NWS Omaha/Valley, NE

Home | Current Version | Previous Version | Text Only | Print | Product List | Glossary Off
Versions: 1 2 3 4 5 6 7 8 9 10 11 12 13 14 15 16 17 18 19 20 21 22 23 24

000
FTUS43 KOAX 211413 AAA
TAFOFK
TAF AMD
KOFK 211413Z 2114/2212 29008KT P6SM FEW009
     FM211800 21006KT P6SM BKN050
     FM220200 14004KT P6SM SCT110
     FM220900 15004KT P6SM VCTS OVC100CB=

USA.gov is the U.S. government's official web portal to all federal, state and local government web resources and services.